createdAt,value
2023-12-08T00:00:49.539Z,14.52
2023-12-08T00:03:16.724Z,12.40
2023-12-08T00:05:43.331Z,14.35
2023-12-08T00:08:11.992Z,13.45
2023-12-08T00:10:38.507Z,16.38
2023-12-08T00:13:05.060Z,15.55
2023-12-08T00:15:32.101Z,15.73
2023-12-08T00:17:58.709Z,14.48
2023-12-08T00:20:25.307Z,14.20
2023-12-08T00:22:51.897Z,12.98
2023-12-08T00:25:18.528Z,16.02
2023-12-08T00:27:45.116Z,15.68
2023-12-08T00:30:13.363Z,14.27
2023-12-08T00:32:40.180Z,15.23
2023-12-08T00:35:07.672Z,13.20
2023-12-08T00:37:34.309Z,14.27
2023-12-08T00:40:01.163Z,15.48
2023-12-08T00:42:28.970Z,18.77
2023-12-08T00:44:55.731Z,18.40
2023-12-08T00:47:22.363Z,20.67
2023-12-08T00:49:49.115Z,15.32
2023-12-08T00:52:15.795Z,14.52
2023-12-08T00:54:42.356Z,12.40
2023-12-08T00:57:09.560Z,13.00
2023-12-08T00:59:36.188Z,13.63
2023-12-08T01:02:03.056Z,15.40
2023-12-08T01:04:29.828Z,15.30
2023-12-08T01:06:56.336Z,15.32
2023-12-08T01:09:23.076Z,14.18
2023-12-08T01:11:50.138Z,13.10
2023-12-08T01:14:16.755Z,14.73
2023-12-08T01:16:43.731Z,13.77
2023-12-08T01:19:12.197Z,14.20
2023-12-08T01:21:39.911Z,13.38
2023-12-08T01:24:07.399Z,14.90
2023-12-08T01:26:34.224Z,15.40
2023-12-08T01:29:00.962Z,16.40
2023-12-08T01:31:27.479Z,16.67
2023-12-08T01:33:54.396Z,14.10
2023-12-08T01:36:39.620Z,13.48
2023-12-08T01:39:07.707Z,12.82
2023-12-08T01:41:34.605Z,15.82
2023-12-08T01:44:01.248Z,15.82
2023-12-08T01:46:31.085Z,13.43
2023-12-08T01:48:59.374Z,13.80
2023-12-08T01:51:26.726Z,14.07
2023-12-08T01:53:53.357Z,14.45
2023-12-08T01:56:20.181Z,13.98
2023-12-08T01:58:46.978Z,14.82
2023-12-08T02:01:14.379Z,13.43
2023-12-08T02:03:41.851Z,14.88
2023-12-08T02:06:10.895Z,15.23
2023-12-08T02:08:37.884Z,14.63
2023-12-08T02:11:04.705Z,16.13
2023-12-08T02:13:31.683Z,13.38
2023-12-08T02:16:05.384Z,13.63
2023-12-08T02:18:34.277Z,13.75
2023-12-08T02:21:02.729Z,12.43
2023-12-08T02:23:29.410Z,11.20
2023-12-08T02:25:56.226Z,12.70
2023-12-08T02:28:22.844Z,12.02
2023-12-08T02:30:51.756Z,11.55
2023-12-08T02:33:30.882Z,13.10
2023-12-08T02:35:58.773Z,9.85
2023-12-08T02:38:26.094Z,11.05
2023-12-08T02:40:52.916Z,12.88
2023-12-08T02:43:19.557Z,10.18
2023-12-08T02:45:46.082Z,14.20
2023-12-08T02:48:12.665Z,16.48
2023-12-08T02:50:39.330Z,13.05
2023-12-08T02:53:05.880Z,12.52
2023-12-08T02:55:32.780Z,12.88
2023-12-08T02:57:59.390Z,13.25
2023-12-08T03:00:25.923Z,12.00
2023-12-08T03:02:52.504Z,11.85
2023-12-08T03:05:19.150Z,11.75
2023-12-08T03:07:45.914Z,12.50
2023-12-08T03:10:12.629Z,11.40
2023-12-08T03:12:39.211Z,11.27
2023-12-08T03:15:06.975Z,13.95
2023-12-08T03:17:33.609Z,12.63
2023-12-08T03:20:00.384Z,14.25
2023-12-08T03:22:27.944Z,11.27
2023-12-08T03:24:54.507Z,10.55
2023-12-08T03:27:21.654Z,15.98
2023-12-08T03:29:48.456Z,10.55
2023-12-08T03:32:15.018Z,12.68
2023-12-08T03:34:41.605Z,12.20
2023-12-08T03:37:08.166Z,14.20
2023-12-08T03:39:34.682Z,13.50
2023-12-08T03:42:01.276Z,10.50
2023-12-08T03:44:27.905Z,10.73
2023-12-08T03:46:54.454Z,11.00
2023-12-08T03:49:21.156Z,11.10
2023-12-08T03:51:47.719Z,12.25
2023-12-08T03:54:14.402Z,13.02
2023-12-08T03:56:41.047Z,13.15
2023-12-08T03:59:07.593Z,12.68
2023-12-08T04:01:34.117Z,14.02
2023-12-08T04:04:00.764Z,18.55
2023-12-08T04:06:27.731Z,11.23
2023-12-08T04:08:54.333Z,13.82
2023-12-08T04:11:20.899Z,11.70
2023-12-08T04:13:47.420Z,11.90
2023-12-08T04:16:15.427Z,12.77
2023-12-08T04:18:42.088Z,14.32
2023-12-08T04:21:08.838Z,12.07
2023-12-08T04:23:35.938Z,11.73
2023-12-08T04:26:02.438Z,10.68
2023-12-08T04:28:28.987Z,13.13
2023-12-08T04:30:55.539Z,12.02
2023-12-08T04:33:22.260Z,12.82
2023-12-08T04:35:49.000Z,14.60
2023-12-08T04:38:15.632Z,12.55
2023-12-08T04:40:42.179Z,13.27
2023-12-08T04:43:08.721Z,13.25
2023-12-08T04:45:35.275Z,13.07
2023-12-08T04:48:02.423Z,14.13
2023-12-08T04:50:29.302Z,12.70
2023-12-08T04:52:55.937Z,12.43
2023-12-08T04:55:22.549Z,13.00
2023-12-08T04:57:49.195Z,13.30
2023-12-08T05:00:16.189Z,13.02
2023-12-08T05:02:42.827Z,13.50
2023-12-08T05:05:09.433Z,12.90
2023-12-08T05:07:36.003Z,15.13
2023-12-08T05:10:02.559Z,16.67
2023-12-08T05:12:29.165Z,14.43
2023-12-08T05:14:55.733Z,13.93
2023-12-08T05:17:22.321Z,14.88
2023-12-08T05:19:49.148Z,14.45
2023-12-08T05:22:15.808Z,13.63
2023-12-08T05:24:42.376Z,14.80
2023-12-08T05:27:09.440Z,14.65
2023-12-08T05:29:36.425Z,12.77
2023-12-08T05:32:03.302Z,14.25
2023-12-08T05:34:30.492Z,15.05
2023-12-08T05:36:57.488Z,14.93
2023-12-08T05:39:24.039Z,13.52
2023-12-08T05:41:50.642Z,13.13
2023-12-08T05:44:17.406Z,14.73
2023-12-08T05:46:44.025Z,14.18
2023-12-08T05:49:10.881Z,16.27
2023-12-08T05:51:37.650Z,12.85
2023-12-08T05:54:04.450Z,13.95
2023-12-08T05:56:31.060Z,14.55
2023-12-08T05:58:57.567Z,15.80
2023-12-08T06:01:24.232Z,16.95
2023-12-08T06:03:50.911Z,15.45
2023-12-08T06:06:17.671Z,15.20
2023-12-08T06:08:44.422Z,15.40
2023-12-08T06:11:11.025Z,13.35
2023-12-08T06:13:37.624Z,14.82
2023-12-08T06:16:05.269Z,15.48
2023-12-08T06:18:32.157Z,15.00
2023-12-08T06:20:59.579Z,14.82
2023-12-08T06:23:26.495Z,14.50
2023-12-08T06:25:53.087Z,13.77
2023-12-08T06:28:19.624Z,14.98
2023-12-08T06:30:46.244Z,14.48
2023-12-08T06:33:12.904Z,16.23
2023-12-08T06:35:39.556Z,15.18
2023-12-08T06:38:06.122Z,15.20
2023-12-08T06:40:32.845Z,14.32
2023-12-08T06:42:59.545Z,14.90
2023-12-08T06:45:26.104Z,16.98
2023-12-08T06:47:52.852Z,13.90
2023-12-08T06:50:19.502Z,11.85
2023-12-08T06:52:48.061Z,16.00
2023-12-08T06:55:15.033Z,14.05
2023-12-08T06:57:41.615Z,12.88
2023-12-08T07:00:11.745Z,13.02
2023-12-08T07:02:38.778Z,16.33
2023-12-08T07:05:08.654Z,16.70
2023-12-08T07:07:35.182Z,15.68
2023-12-08T07:10:01.758Z,15.55
2023-12-08T07:12:28.256Z,20.23
2023-12-08T07:14:55.008Z,16.15
2023-12-08T07:17:21.680Z,16.70
2023-12-08T07:19:48.572Z,15.90
2023-12-08T07:22:15.328Z,16.67
2023-12-08T07:24:41.965Z,14.48
2023-12-08T07:27:08.526Z,18.27
2023-12-08T07:29:35.273Z,16.50
2023-12-08T07:32:01.963Z,15.68
2023-12-08T07:34:28.739Z,17.20
2023-12-08T07:36:55.364Z,17.38
2023-12-08T07:39:21.953Z,14.05
2023-12-08T07:41:48.689Z,16.00
2023-12-08T07:44:15.933Z,17.38
2023-12-08T07:46:42.470Z,13.65
2023-12-08T07:49:10.055Z,16.45
2023-12-08T07:51:37.875Z,16.98
2023-12-08T07:54:04.841Z,16.20
2023-12-08T07:56:31.803Z,20.52
2023-12-08T07:58:58.331Z,16.63
2023-12-08T08:01:24.889Z,15.32
2023-12-08T08:03:51.558Z,16.42
2023-12-08T08:06:18.272Z,18.48
2023-12-08T08:08:45.013Z,16.20
2023-12-08T08:11:11.576Z,17.30
2023-12-08T08:13:38.115Z,16.42
2023-12-08T08:16:04.829Z,15.18
2023-12-08T08:18:31.563Z,15.35
2023-12-08T08:20:58.341Z,16.27
2023-12-08T08:23:24.992Z,15.20
2023-12-08T08:25:51.968Z,17.52
2023-12-08T08:28:19.230Z,18.10
2023-12-08T08:30:46.339Z,13.25
2023-12-08T08:33:13.033Z,17.92
2023-12-08T08:35:42.160Z,15.20
2023-12-08T08:38:08.913Z,14.85
2023-12-08T08:40:35.542Z,13.75
2023-12-08T08:43:02.096Z,20.63
2023-12-08T08:45:28.678Z,14.55
2023-12-08T08:47:55.551Z,20.95
2023-12-08T08:50:23.352Z,13.82
2023-12-08T08:52:50.408Z,17.38
2023-12-08T08:55:17.415Z,15.50
2023-12-08T08:57:45.266Z,15.88
2023-12-08T09:00:13.861Z,15.88
2023-12-08T09:02:42.334Z,15.02
2023-12-08T09:05:09.200Z,16.83
2023-12-08T09:07:37.321Z,14.45
2023-12-08T09:10:04.612Z,12.25
2023-12-08T09:12:31.361Z,16.38
2023-12-08T09:14:58.255Z,14.95
2023-12-08T09:17:24.922Z,14.80
2023-12-08T09:19:52.443Z,15.25
2023-12-08T09:22:19.194Z,15.80
2023-12-08T09:24:45.762Z,17.00
2023-12-08T09:27:12.496Z,16.48
2023-12-08T09:29:39.137Z,15.48
2023-12-08T09:32:06.442Z,20.67
2023-12-08T09:34:34.177Z,20.98
2023-12-08T09:37:25.963Z,17.27
2023-12-08T09:39:47.802Z,16.40
2023-12-08T09:42:22.469Z,16.92
2023-12-08T09:44:50.084Z,19.42
2023-12-08T09:47:19.194Z,19.55
2023-12-08T09:49:47.843Z,20.48
2023-12-08T09:52:17.868Z,19.35
2023-12-08T09:54:45.192Z,16.63
2023-12-08T09:57:12.149Z,17.23
2023-12-08T09:59:39.887Z,16.40
2023-12-08T10:02:09.920Z,19.33
2023-12-08T10:04:37.296Z,23.63
2023-12-08T10:07:07.137Z,21.48
2023-12-08T10:09:36.183Z,18.52
2023-12-08T10:12:03.523Z,21.13
2023-12-08T10:14:30.517Z,22.08
2023-12-08T10:16:57.069Z,17.60
2023-12-08T10:19:23.914Z,20.10
2023-12-08T10:22:03.051Z,19.75
2023-12-08T10:24:34.683Z,16.73
2023-12-08T10:27:02.212Z,17.30
2023-12-08T10:29:32.606Z,20.15
2023-12-08T10:31:59.724Z,16.58
2023-12-08T10:34:27.812Z,17.63
2023-12-08T10:36:58.194Z,21.73
2023-12-08T10:39:28.692Z,19.10
2023-12-08T10:41:56.826Z,22.48
2023-12-08T10:44:26.418Z,22.20
2023-12-08T10:46:53.784Z,18.50
2023-12-08T10:49:21.564Z,20.60
2023-12-08T10:51:49.177Z,22.48
2023-12-08T10:54:18.172Z,30.02
2023-12-08T10:56:49.453Z,22.70
2023-12-08T10:59:32.585Z,24.25
2023-12-08T11:02:03.669Z,26.08
2023-12-08T11:04:34.944Z,19.38
2023-12-08T11:07:05.362Z,21.45
2023-12-08T11:09:36.802Z,19.50
2023-12-08T11:12:05.488Z,25.92
2023-12-08T11:14:39.751Z,23.05
2023-12-08T11:17:17.873Z,28.13
2023-12-08T11:19:46.002Z,18.58
2023-12-08T11:22:13.344Z,22.75
2023-12-08T11:24:42.054Z,29.33
2023-12-08T11:27:27.081Z,23.42
2023-12-08T11:30:00.041Z,26.08
2023-12-08T11:32:51.076Z,22.05
2023-12-08T11:35:19.865Z,28.65
2023-12-08T11:37:47.107Z,21.85
2023-12-08T11:40:13.974Z,24.33
2023-12-08T11:42:43.836Z,28.67
2023-12-08T11:45:14.895Z,21.20
2023-12-08T11:47:42.866Z,23.80
2023-12-08T11:50:11.782Z,21.63
2023-12-08T11:52:39.076Z,18.50
2023-12-08T11:55:13.597Z,24.60
2023-12-08T11:57:53.189Z,23.02
2023-12-08T12:00:21.848Z,21.17
2023-12-08T12:02:50.477Z,25.17
2023-12-08T12:05:17.951Z,26.00
2023-12-08T12:07:52.013Z,19.17
2023-12-08T12:10:22.722Z,24.55
2023-12-08T12:13:04.449Z,26.40
2023-12-08T12:15:34.557Z,23.02
2023-12-08T12:18:02.892Z,23.75
2023-12-08T12:20:31.151Z,22.83
2023-12-08T12:22:57.946Z,32.78
2023-12-08T12:25:24.433Z,19.50
2023-12-08T12:27:53.436Z,32.85
2023-12-08T12:30:20.259Z,22.30
2023-12-08T12:32:48.919Z,24.67
2023-12-08T12:35:16.103Z,25.27
2023-12-08T12:37:44.087Z,27.85
2023-12-08T12:40:12.018Z,30.50
2023-12-08T12:42:48.822Z,20.67
2023-12-08T12:45:31.867Z,23.00
2023-12-08T12:48:06.052Z,29.45
2023-12-08T12:50:48.594Z,33.35
2023-12-08T12:53:19.268Z,24.52
2023-12-08T12:55:47.479Z,21.48
2023-12-08T12:58:21.855Z,24.42
2023-12-08T13:00:49.247Z,27.35
2023-12-08T13:03:18.866Z,22.17
2023-12-08T13:05:47.698Z,24.80
2023-12-08T13:08:16.800Z,26.58
2023-12-08T13:10:45.575Z,26.83
2023-12-08T13:13:13.537Z,28.45
2023-12-08T13:15:41.253Z,28.27
2023-12-08T13:18:08.588Z,28.77
2023-12-08T13:20:41.349Z,22.73
2023-12-08T13:23:08.451Z,26.30
2023-12-08T13:25:35.015Z,28.77
2023-12-08T13:28:01.520Z,22.67
2023-12-08T13:30:28.125Z,31.50
2023-12-08T13:32:57.684Z,33.17
2023-12-08T13:35:24.478Z,20.52
2023-12-08T13:37:51.182Z,40.03
2023-12-08T13:40:18.202Z,29.02
2023-12-08T13:42:44.792Z,24.40
2023-12-08T13:45:11.481Z,26.42
2023-12-08T13:47:38.396Z,31.25
2023-12-08T13:50:05.445Z,26.83
2023-12-08T13:52:32.088Z,20.77
2023-12-08T13:54:58.655Z,28.65
2023-12-08T13:57:25.603Z,35.88
2023-12-08T13:59:53.791Z,23.83
2023-12-08T14:02:21.091Z,30.60
2023-12-08T14:04:47.917Z,28.20
2023-12-08T14:07:14.913Z,28.88
2023-12-08T14:09:43.043Z,24.80
2023-12-08T14:12:10.845Z,40.63
2023-12-08T14:14:40.683Z,36.22
2023-12-08T14:17:07.416Z,36.35
2023-12-08T14:19:34.361Z,41.28
2023-12-08T14:22:00.936Z,35.97
2023-12-08T14:24:28.078Z,37.42
2023-12-08T14:26:55.020Z,32.05
2023-12-08T14:29:23.262Z,46.08
2023-12-08T14:31:50.035Z,40.28
2023-12-08T14:34:16.803Z,36.65
2023-12-08T14:36:43.530Z,36.38
2023-12-08T14:39:11.493Z,40.38
2023-12-08T14:41:38.232Z,45.90
2023-12-08T14:44:05.009Z,48.35
2023-12-08T14:46:31.629Z,33.50
2023-12-08T14:48:58.392Z,39.05
2023-12-08T14:51:25.198Z,39.17
2023-12-08T14:53:52.971Z,42.38
2023-12-08T14:56:20.560Z,49.28
2023-12-08T14:58:47.550Z,37.85
2023-12-08T15:01:19.423Z,41.67
2023-12-08T15:03:47.146Z,45.85
2023-12-08T15:06:14.947Z,41.88
2023-12-08T15:08:42.323Z,46.72
2023-12-08T15:11:10.333Z,41.20
2023-12-08T15:13:37.943Z,45.13
2023-12-08T15:16:05.302Z,34.83
2023-12-08T15:18:32.968Z,29.17
2023-12-08T15:21:01.020Z,34.75
2023-12-08T15:23:33.773Z,34.53
2023-12-08T15:26:01.412Z,32.72
2023-12-08T15:28:28.218Z,31.58
2023-12-08T15:30:54.963Z,33.47
2023-12-08T15:33:21.926Z,33.10
2023-12-08T15:35:48.989Z,36.50
2023-12-08T15:38:15.739Z,29.20
2023-12-08T15:40:43.105Z,20.50
2023-12-08T15:43:09.721Z,23.20
2023-12-08T15:45:36.470Z,31.08
2023-12-08T15:48:04.117Z,40.33
2023-12-08T15:50:30.905Z,29.27
2023-12-08T15:52:57.486Z,31.17
2023-12-08T15:55:25.712Z,31.38
2023-12-08T15:57:53.940Z,28.08
2023-12-08T16:00:21.214Z,29.85
2023-12-08T16:02:48.294Z,26.70
2023-12-08T16:05:15.074Z,26.98
2023-12-08T16:07:41.903Z,25.17
2023-12-08T16:10:09.562Z,28.35
2023-12-08T16:12:36.177Z,31.48
2023-12-08T16:15:02.967Z,36.70
2023-12-08T16:17:29.731Z,25.85
2023-12-08T16:19:56.750Z,28.83
2023-12-08T16:22:23.473Z,35.30
2023-12-08T16:24:50.218Z,28.10
2023-12-08T16:27:16.859Z,30.83
2023-12-08T16:29:47.423Z,26.73
2023-12-08T16:32:14.460Z,32.00
2023-12-08T16:34:41.284Z,24.20
2023-12-08T16:37:07.977Z,24.42
2023-12-08T16:39:35.151Z,31.40
2023-12-08T16:42:01.986Z,27.65
2023-12-08T16:44:28.688Z,32.88
2023-12-08T16:46:55.405Z,32.95
2023-12-08T16:49:22.414Z,33.55
2023-12-08T16:51:51.264Z,42.63
2023-12-08T16:54:18.777Z,30.40
2023-12-08T16:56:45.773Z,36.05
2023-12-08T16:59:12.411Z,30.10
2023-12-08T17:01:39.161Z,36.00
2023-12-08T17:04:07.690Z,31.63
2023-12-08T17:06:34.629Z,34.47
2023-12-08T17:09:01.560Z,37.13
2023-12-08T17:11:28.169Z,38.35
2023-12-08T17:13:55.122Z,36.95
2023-12-08T17:16:22.754Z,35.70
2023-12-08T17:18:49.675Z,34.15
2023-12-08T17:21:17.250Z,40.05
2023-12-08T17:23:44.237Z,39.72
2023-12-08T17:26:13.121Z,33.85
2023-12-08T17:28:41.641Z,37.13
2023-12-08T17:31:08.183Z,40.13
2023-12-08T17:33:34.864Z,35.33
2023-12-08T17:36:01.857Z,35.55
2023-12-08T17:38:28.443Z,35.50
2023-12-08T17:40:54.963Z,32.35
2023-12-08T17:43:21.898Z,28.85
2023-12-08T17:45:48.443Z,39.40
2023-12-08T17:48:15.176Z,37.83
2023-12-08T17:50:41.861Z,32.47
2023-12-08T17:53:08.476Z,36.42
2023-12-08T17:55:35.044Z,30.33
2023-12-08T17:58:01.588Z,28.50
2023-12-08T18:00:28.192Z,27.30
2023-12-08T18:02:56.653Z,32.30
2023-12-08T18:05:24.090Z,29.02
2023-12-08T18:07:50.725Z,35.85
2023-12-08T18:10:17.381Z,30.17
2023-12-08T18:12:43.980Z,37.55
2023-12-08T18:15:11.220Z,38.88
2023-12-08T18:17:38.780Z,25.98
2023-12-08T18:20:06.406Z,24.48
2023-12-08T18:22:34.806Z,32.08
2023-12-08T18:25:01.391Z,26.20
2023-12-08T18:27:39.696Z,29.83
2023-12-08T18:30:15.488Z,28.15
2023-12-08T18:32:43.083Z,31.75
2023-12-08T18:35:09.847Z,36.55
2023-12-08T18:37:36.404Z,23.35
2023-12-08T18:40:04.501Z,25.63
2023-12-08T18:42:31.418Z,31.67
2023-12-08T18:44:58.467Z,26.80
2023-12-08T18:47:25.083Z,29.42
2023-12-08T18:49:51.723Z,25.67
2023-12-08T18:52:18.328Z,26.80
2023-12-08T18:54:44.952Z,31.48
2023-12-08T18:57:11.741Z,27.77
2023-12-08T18:59:39.462Z,25.85
2023-12-08T19:02:06.718Z,22.55
2023-12-08T19:04:34.901Z,23.42
2023-12-08T19:07:05.162Z,25.13
2023-12-08T19:09:31.968Z,32.58
2023-12-08T19:12:00.486Z,28.13
2023-12-08T19:14:28.693Z,26.77
2023-12-08T19:16:55.304Z,27.48
2023-12-08T19:19:22.285Z,29.83
2023-12-08T19:21:48.930Z,27.90
2023-12-08T19:24:15.528Z,27.20
2023-12-08T19:26:42.119Z,29.58
2023-12-08T19:29:08.718Z,24.65
2023-12-08T19:31:35.836Z,22.83
2023-12-08T19:34:03.981Z,29.98
2023-12-08T19:36:30.680Z,23.40
2023-12-08T19:39:00.940Z,27.80
2023-12-08T19:41:28.183Z,25.20
2023-12-08T19:43:55.852Z,19.65
2023-12-08T19:46:22.616Z,22.25
2023-12-08T19:48:49.457Z,23.17
2023-12-08T19:51:16.209Z,25.70
2023-12-08T19:53:42.966Z,25.70
2023-12-08T19:56:09.984Z,22.63
2023-12-08T19:58:36.576Z,21.80
2023-12-08T20:01:03.322Z,23.25
2023-12-08T20:03:30.040Z,27.65
2023-12-08T20:05:56.884Z,16.33
2023-12-08T20:08:23.507Z,25.30
2023-12-08T20:10:50.105Z,18.52
2023-12-08T20:13:16.933Z,24.88
2023-12-08T20:15:45.685Z,24.23
2023-12-08T20:18:12.763Z,23.92
2023-12-08T20:20:39.833Z,25.65
2023-12-08T20:23:06.794Z,25.30
2023-12-08T20:25:33.384Z,20.52
2023-12-08T20:28:01.166Z,22.95
2023-12-08T20:30:27.835Z,24.95
2023-12-08T20:32:56.996Z,24.13
2023-12-08T20:35:26.421Z,28.58
2023-12-08T20:40:19.582Z,17.50
2023-12-08T20:42:46.159Z,21.00
2023-12-08T20:45:12.857Z,20.08
2023-12-08T20:47:39.555Z,18.60
2023-12-08T20:50:06.567Z,22.70
2023-12-08T20:52:33.124Z,18.13
2023-12-08T20:54:59.816Z,17.30
2023-12-08T20:57:27.088Z,19.67
2023-12-08T20:59:53.878Z,23.40
2023-12-08T21:02:22.177Z,25.52
2023-12-08T21:04:49.458Z,18.67
2023-12-08T21:07:16.240Z,21.08
2023-12-08T21:09:42.963Z,18.05
2023-12-08T21:12:09.597Z,21.02
2023-12-08T21:14:36.142Z,24.13
2023-12-08T21:17:03.393Z,23.90
2023-12-08T21:19:31.639Z,19.40
2023-12-08T21:22:02.241Z,22.80
2023-12-08T21:24:29.122Z,21.48
2023-12-08T21:26:55.931Z,20.77
2023-12-08T21:29:22.451Z,25.33
2023-12-08T21:31:51.490Z,18.45
2023-12-08T21:34:18.153Z,16.58
2023-12-08T21:36:45.079Z,25.88
2023-12-08T21:39:11.710Z,21.77
2023-12-08T21:41:38.382Z,18.52
2023-12-08T21:44:05.200Z,21.15
2023-12-08T21:46:31.874Z,15.68
2023-12-08T21:48:59.615Z,16.35
2023-12-08T21:51:26.870Z,22.55
2023-12-08T21:53:54.348Z,24.15
2023-12-08T21:56:29.116Z,19.20
2023-12-08T21:58:57.773Z,20.98
2023-12-08T22:01:24.392Z,20.23
2023-12-08T22:03:51.125Z,22.17
2023-12-08T22:06:17.905Z,15.63
2023-12-08T22:08:44.444Z,15.27
2023-12-08T22:11:11.021Z,15.93
2023-12-08T22:13:37.540Z,24.17
2023-12-08T22:16:04.389Z,13.52
2023-12-08T22:18:31.125Z,14.20
2023-12-08T22:20:58.184Z,18.17
2023-12-08T22:23:24.901Z,21.40
2023-12-08T22:25:51.521Z,13.50
2023-12-08T22:28:21.621Z,21.60
2023-12-08T22:30:48.180Z,24.38
2023-12-08T22:33:15.557Z,26.60
2023-12-08T22:35:42.714Z,18.70
2023-12-08T22:38:11.000Z,21.58
2023-12-08T22:40:37.572Z,28.20
2023-12-08T22:43:04.156Z,19.77
2023-12-08T22:45:30.746Z,16.55
2023-12-08T22:47:57.442Z,16.92
2023-12-08T22:50:29.170Z,20.17
2023-12-08T22:52:59.167Z,19.60
2023-12-08T22:55:25.842Z,17.00
2023-12-08T22:57:52.384Z,22.63
2023-12-08T23:00:25.392Z,24.58
2023-12-08T23:02:53.551Z,20.85
2023-12-08T23:05:21.061Z,17.17
2023-12-08T23:07:48.224Z,23.10
2023-12-08T23:10:15.684Z,19.15
2023-12-08T23:12:42.661Z,16.15
2023-12-08T23:15:09.774Z,18.92
2023-12-08T23:17:37.194Z,20.55
2023-12-08T23:20:04.542Z,18.23
2023-12-08T23:22:31.101Z,19.20
2023-12-08T23:24:57.649Z,21.08
2023-12-08T23:27:24.370Z,15.70
2023-12-08T23:29:51.171Z,11.68
2023-12-08T23:32:17.789Z,19.15
2023-12-08T23:34:44.531Z,17.10
2023-12-08T23:37:11.234Z,20.88
2023-12-08T23:39:39.471Z,19.45
2023-12-08T23:42:06.855Z,17.42
2023-12-08T23:44:33.695Z,19.08
2023-12-08T23:47:00.714Z,25.13
2023-12-08T23:49:27.540Z,14.40
2023-12-08T23:51:54.196Z,21.77
2023-12-08T23:54:20.833Z,25.33
2023-12-08T23:56:47.459Z,19.45
2023-12-08T23:59:14.225Z,14.77
